Time;durP1;ratioP1;P1;durP2;ratioP2;P2;SDS_P1;SDS_P2;PMS_P1;PMS_P2;Temp;Humidity;BMP_temperature;BMP_pressure;BME280_temperature;BME280_humidity;BME280_pressure;Samples;Min_cycle;Max_cycle;Signal;HPM_P1;HPM_P2
2022/08/17 00:01:00;;;;;;;;;;;;;;;26.39;nan;100063.56;5074219;28;636;-44
2022/08/17 00:03:31;;;;;;;;;;;;;;;26.41;nan;100058.06;5074250;28;1906;-45
2022/08/17 00:06:10;;;;;;;;;;;;;;;26.39;nan;100050.19;5074038;28;890;-44
2022/08/17 00:08:42;;;;;;;;;;;;;;;26.25;nan;100068.59;5074017;28;1339;-49
2022/08/17 00:11:12;;;;;;;;;;;;;;;26.29;nan;100054.81;5073926;28;945;-49
2022/08/17 00:13:41;;;;;;;;;;;;;;;26.30;nan;100061.81;5073811;28;1672;-44
2022/08/17 00:16:10;;;;;;;;;;;;;;;26.34;nan;100059.66;5072842;28;1008;-45
2022/08/17 00:18:37;;;;;;;;;;;;;;;26.30;nan;100060.94;5073059;28;1291;-51
2022/08/17 00:21:24;;;;;;;;;;;;;;;26.32;nan;100050.97;5072435;28;2765;-47
2022/08/17 00:23:51;;;;;;;;;;;;;;;26.32;nan;100043.81;5072980;28;1914;-47
2022/08/17 00:26:19;;;;;;;;;;;;;;;26.28;nan;100047.78;5072682;28;698;-47
2022/08/17 00:29:06;;;;;;;;;;;;;;;26.41;nan;100045.56;5072857;28;1969;-45
2022/08/17 00:31:34;;;;;;;;;;;;;;;26.41;nan;100042.91;5071941;28;1125;-47
2022/08/17 00:34:01;;;;;;;;;;;;;;;26.39;nan;100036.84;5071182;28;1200;-48
2022/08/17 00:36:28;;;;;;;;;;;;;;;26.41;nan;100034.03;5071243;28;878;-47
2022/08/17 00:38:55;;;;;;;;;;;;;;;26.34;nan;100047.16;5070676;28;1162;-43
2022/08/17 00:41:24;;;;;;;;;;;;;;;26.28;nan;100039.75;5069472;28;710;-44
2022/08/17 00:43:52;;;;;;;;;;;;;;;26.29;nan;100038.78;5069201;28;1914;-43
2022/08/17 00:46:21;;;;;;;;;;;;;;;26.46;nan;100042.41;5070410;28;740;-44
2022/08/17 00:48:48;;;;;;;;;;;;;;;26.52;nan;100044.47;5071892;28;1271;-49
2022/08/17 00:51:18;;;;;;;;;;;;;;;26.44;nan;100039.91;5071548;28;904;-43
2022/08/17 00:53:57;;;;;;;;;;;;;;;26.44;nan;100037.25;5072111;28;1264;-46
2022/08/17 00:56:28;;;;;;;;;;;;;;;26.57;nan;100035.00;5073217;28;703;-43
2022/08/17 00:58:55;;;;;;;;;;;;;;;26.51;nan;100048.13;5072953;28;1416;-44
2022/08/17 01:01:23;;;;;;;;;;;;;;;26.47;nan;100046.78;5073170;28;760;-51
2022/08/17 01:03:51;;;;;;;;;;;;;;;26.49;nan;100045.63;5073405;28;1910;-51
2022/08/17 01:06:19;;;;;;;;;;;;;;;26.51;nan;100046.31;5073163;28;925;-48
2022/08/17 01:08:46;;;;;;;;;;;;;;;26.45;nan;100054.94;5073405;28;1330;-51
2022/08/17 01:11:12;;;;;;;;;;;;;;;26.51;nan;100043.63;5072916;28;1268;-45
2022/08/17 01:13:40;;;;;;;;;;;;;;;26.65;nan;100044.94;5072978;28;1662;-45
2022/08/17 01:16:22;;;;;;;;;;;;;;;26.56;nan;100051.19;5073372;28;1004;-46
2022/08/17 01:18:50;;;;;;;;;;;;;;;26.48;nan;100059.13;5073345;28;1284;-46
2022/08/17 01:21:23;;;;;;;;;;;;;;;26.49;nan;100056.31;5072930;28;1543;-51
2022/08/17 01:23:50;;;;;;;;;;;;;;;26.50;nan;100057.16;5063793;28;1910;-47
2022/08/17 01:26:18;;;;;;;;;;;;;;;26.55;nan;100060.19;5053007;28;951;-46
2022/08/17 01:28:45;;;;;;;;;;;;;;;26.57;nan;100055.53;5053228;28;1264;-48
2022/08/17 01:31:20;;;;;;;;;;;;;;;26.58;nan;100063.41;5052718;28;620;-47
2022/08/17 01:33:47;;;;;;;;;;;;;;;26.47;nan;100069.00;5052195;28;1327;-45
2022/08/17 01:36:14;;;;;;;;;;;;;;;26.51;nan;100066.81;5052825;28;867;-50
2022/08/17 01:38:40;;;;;;;;;;;;;;;26.54;nan;100054.00;5052867;28;1244;-51
2022/08/17 01:41:11;;;;;;;;;;;;;;;26.53;nan;100060.38;5051757;28;941;-43
2022/08/17 01:43:41;;;;;;;;;;;;;;;26.46;nan;100061.97;5052934;28;1910;-47
2022/08/17 01:46:08;;;;;;;;;;;;;;;26.41;nan;100060.75;5053539;28;680;-43
2022/08/17 01:48:36;;;;;;;;;;;;;;;26.30;nan;100064.47;5057416;28;1280;-43
2022/08/17 01:51:04;;;;;;;;;;;;;;;26.28;nan;100062.94;5076488;28;750;-44
2022/08/17 01:53:33;;;;;;;;;;;;;;;26.26;nan;100067.59;5076636;28;1296;-44
2022/08/17 01:56:04;;;;;;;;;;;;;;;26.27;nan;100061.25;5076260;28;734;-46
2022/08/17 01:58:32;;;;;;;;;;;;;;;26.33;nan;100055.31;5076815;28;1220;-45
2022/08/17 02:00:59;;;;;;;;;;;;;;;26.26;nan;100059.59;5076628;28;1188;-43
2022/08/17 02:03:27;;;;;;;;;;;;;;;26.24;nan;100057.06;5076464;28;1977;-44
2022/08/17 02:05:54;;;;;;;;;;;;;;;26.30;nan;100051.13;5076181;28;706;-43
2022/08/17 02:08:21;;;;;;;;;;;;;;;26.29;nan;100052.13;5076626;28;1280;-45
2022/08/17 02:11:06;;;;;;;;;;;;;;;26.24;nan;100040.22;5076490;28;905;-47
2022/08/17 02:13:34;;;;;;;;;;;;;;;26.25;nan;100040.06;5076120;28;1750;-48
2022/08/17 02:16:01;;;;;;;;;;;;;;;26.30;nan;100045.78;5076437;28;823;-47
2022/08/17 02:18:28;;;;;;;;;;;;;;;26.29;nan;100044.13;5076424;28;1263;-44
2022/08/17 02:20:56;;;;;;;;;;;;;;;26.33;nan;100047.31;5076070;28;729;-39
2022/08/17 02:23:23;;;;;;;;;;;;;;;26.28;nan;100053.13;5076220;28;1975;-45
2022/08/17 02:25:51;;;;;;;;;;;;;;;26.18;nan;100047.00;5075709;28;734;-46
2022/08/17 02:28:17;;;;;;;;;;;;;;;26.14;nan;100052.78;5076167;28;1474;-43
2022/08/17 02:30:44;;;;;;;;;;;;;;;26.07;nan;100047.19;5075787;28;817;-44
2022/08/17 02:33:27;;;;;;;;;;;;;;;26.09;nan;100048.72;5075938;28;1196;-42
2022/08/17 02:36:07;;;;;;;;;;;;;;;26.13;nan;100045.75;5075714;28;652;-42
2022/08/17 02:38:35;;;;;;;;;;;;;;;26.00;nan;100049.63;5076147;28;1271;-44
2022/08/17 02:41:02;;;;;;;;;;;;;;;25.97;nan;100046.41;5075620;28;932;-44
2022/08/17 02:43:29;;;;;;;;;;;;;;;26.01;nan;100047.81;5076038;28;1906;-48
2022/08/17 02:45:55;;;;;;;;;;;;;;;25.97;nan;100043.75;5075908;28;853;-47
2022/08/17 02:48:22;;;;;;;;;;;;;;;25.86;nan;100049.31;5075759;28;1268;-46
2022/08/17 02:50:56;;;;;;;;;;;;;;;25.72;nan;100049.78;5075568;28;694;-46
2022/08/17 02:53:22;;;;;;;;;;;;;;;25.74;nan;100038.00;5075807;28;1240;-43
2022/08/17 02:55:49;;;;;;;;;;;;;;;25.83;nan;100044.25;5074346;28;741;-42
2022/08/17 02:58:16;;;;;;;;;;;;;;;25.70;nan;100041.94;5074516;28;1239;-44
2022/08/17 03:00:47;;;;;;;;;;;;;;;25.64;nan;100039.03;5075414;28;844;-46
2022/08/17 03:03:17;;;;;;;;;;;;;;;25.62;nan;100049.00;5074170;28;1976;-45
2022/08/17 03:05:46;;;;;;;;;;;;;;;25.64;nan;100053.22;5075412;28;897;-47
2022/08/17 03:08:14;;;;;;;;;;;;;;;25.70;nan;100051.78;5075569;28;1255;-48
2022/08/17 03:10:41;;;;;;;;;;;;;;;25.50;nan;100051.03;5075354;28;1449;-46
2022/08/17 03:13:08;;;;;;;;;;;;;;;25.54;nan;100053.25;5075253;28;1576;-44
2022/08/17 03:15:35;;;;;;;;;;;;;;;25.52;nan;100044.56;5075291;28;809;-42
2022/08/17 03:18:02;;;;;;;;;;;;;;;25.59;nan;100039.50;5075283;28;1227;-47
2022/08/17 03:20:30;;;;;;;;;;;;;;;25.51;nan;100037.53;5074989;28;757;-46
2022/08/17 03:22:58;;;;;;;;;;;;;;;25.61;nan;100028.66;5075037;28;1985;-43
2022/08/17 03:25:32;;;;;;;;;;;;;;;25.53;nan;100024.06;5075145;28;873;-44
2022/08/17 03:27:59;;;;;;;;;;;;;;;25.51;nan;100024.22;5074949;28;1641;-46
2022/08/17 03:30:27;;;;;;;;;;;;;;;25.46;nan;100029.13;5075027;28;729;-51
2022/08/17 03:32:55;;;;;;;;;;;;;;;25.56;nan;100014.94;5075038;28;1248;-42
2022/08/17 03:35:23;;;;;;;;;;;;;;;25.59;nan;100010.16;5073998;28;972;-44
2022/08/17 03:37:50;;;;;;;;;;;;;;;25.62;nan;100001.00;5074804;28;1165;-46
2022/08/17 03:40:26;;;;;;;;;;;;;;;25.59;nan;100001.31;5074904;28;1461;-45
2022/08/17 03:43:04;;;;;;;;;;;;;;;25.54;nan;100007.06;5074972;28;1993;-43
2022/08/17 03:56:42;;;;;;;;;;;;;;;25.54;nan;100026.59;5074513;28;1039;-47
2022/08/17 03:59:10;;;;;;;;;;;;;;;25.60;nan;100034.97;5074543;28;1272;-50
2022/08/17 04:01:48;;;;;;;;;;;;;;;25.60;nan;100043.81;5074432;28;1141;-49
2022/08/17 04:04:15;;;;;;;;;;;;;;;25.51;nan;100042.88;5073930;28;1906;-49
2022/08/17 04:06:42;;;;;;;;;;;;;;;25.37;nan;100045.16;5073013;28;1029;-49
2022/08/17 04:09:09;;;;;;;;;;;;;;;25.40;nan;100044.88;5073716;28;1283;-43
2022/08/17 04:11:36;;;;;;;;;;;;;;;25.39;nan;100048.50;5072949;28;1579;-46
2022/08/17 04:14:03;;;;;;;;;;;;;;;25.30;nan;100039.56;5072134;28;1303;-44
2022/08/17 04:16:30;;;;;;;;;;;;;;;25.26;nan;100048.03;5072670;28;1001;-43
2022/08/17 04:18:57;;;;;;;;;;;;;;;25.19;nan;100038.91;5072352;28;1208;-45
2022/08/17 04:21:24;;;;;;;;;;;;;;;25.19;nan;100039.75;5072728;28;877;-45
2022/08/17 04:23:51;;;;;;;;;;;;;;;25.15;nan;100033.03;5072660;28;1906;-45
2022/08/17 04:26:18;;;;;;;;;;;;;;;25.12;nan;100024.47;5072574;28;896;-44
2022/08/17 04:29:05;;;;;;;;;;;;;;;25.10;nan;100032.63;5073782;28;2095;-45
2022/08/17 04:31:32;;;;;;;;;;;;;;;25.14;nan;100033.19;5073454;28;1278;-46
2022/08/17 04:33:59;;;;;;;;;;;;;;;25.07;nan;100040.91;5073614;28;1208;-44
2022/08/17 04:36:27;;;;;;;;;;;;;;;25.04;nan;100035.88;5073215;28;920;-46
2022/08/17 04:38:53;;;;;;;;;;;;;;;25.04;nan;100038.53;5073530;28;1362;-47
2022/08/17 04:44:10;;;;;;;;;;;;;;;25.08;nan;100039.09;5073267;28;1977;-45
2022/08/17 04:46:37;;;;;;;;;;;;;;;25.14;nan;100039.34;5073510;28;1056;-50
2022/08/17 04:49:09;;;;;;;;;;;;;;;25.16;nan;100042.72;5073379;28;1453;-43
2022/08/17 04:51:41;;;;;;;;;;;;;;;25.15;nan;100054.34;5073347;28;1126;-47
2022/08/17 04:54:20;;;;;;;;;;;;;;;25.09;nan;100052.25;5073652;28;1362;-42
2022/08/17 04:56:47;;;;;;;;;;;;;;;25.02;nan;100055.66;5073175;28;1012;-46
2022/08/17 04:59:18;;;;;;;;;;;;;;;25.06;nan;100049.03;5073384;28;1221;-43
2022/08/17 05:01:46;;;;;;;;;;;;;;;25.08;nan;100050.56;5072439;28;999;-43
2022/08/17 05:04:18;;;;;;;;;;;;;;;25.12;nan;100051.13;5073358;28;1984;-48
2022/08/17 05:06:58;;;;;;;;;;;;;;;25.14;nan;100044.66;5073284;28;1029;-46
2022/08/17 05:09:25;;;;;;;;;;;;;;;25.10;nan;100045.97;5073337;28;1296;-45
2022/08/17 05:11:52;;;;;;;;;;;;;;;25.08;nan;100050.56;5073144;28;1631;-43
2022/08/17 05:14:19;;;;;;;;;;;;;;;25.02;nan;100051.16;5071726;28;1398;-47
2022/08/17 05:16:48;;;;;;;;;;;;;;;25.00;nan;100059.31;5072911;28;1009;-43
2022/08/17 05:19:14;;;;;;;;;;;;;;;24.95;nan;100060.72;5073103;28;1279;-47
2022/08/17 05:21:41;;;;;;;;;;;;;;;24.98;nan;100055.94;5072431;28;1085;-45
2022/08/17 05:24:08;;;;;;;;;;;;;;;25.13;nan;100058.16;5072107;28;1902;-43
2022/08/17 05:26:38;;;;;;;;;;;;;;;25.15;nan;100064.16;5073071;28;1046;-49
2022/08/17 05:29:05;;;;;;;;;;;;;;;25.24;nan;100061.47;5068138;28;1188;-50
2022/08/17 05:31:32;;;;;;;;;;;;;;;25.12;nan;100067.97;5052589;28;1248;-43
2022/08/17 05:33:59;;;;;;;;;;;;;;;25.15;nan;100062.34;5052660;28;1213;-44
2022/08/17 05:36:25;;;;;;;;;;;;;;;25.17;nan;100064.88;5052589;28;852;-52
2022/08/17 05:39:08;;;;;;;;;;;;;;;25.24;nan;100069.47;5052779;28;1232;-44
2022/08/17 05:41:34;;;;;;;;;;;;;;;25.29;nan;100058.38;5056938;28;1036;-48
2022/08/17 05:44:01;;;;;;;;;;;;;;;25.30;nan;100063.56;5072585;28;1973;-44
2022/08/17 05:46:34;;;;;;;;;;;;;;;25.37;nan;100056.66;5072732;28;968;-52
2022/08/17 05:49:02;;;;;;;;;;;;;;;25.41;nan;100063.38;5072828;28;1256;-51
2022/08/17 05:51:29;;;;;;;;;;;;;;;25.50;nan;100061.72;5072368;28;925;-44
2022/08/17 05:54:01;;;;;;;;;;;;;;;25.53;nan;100051.56;5072153;28;1193;-44
2022/08/17 05:56:40;;;;;;;;;;;;;;;25.45;nan;100059.44;5072097;28;701;-44
2022/08/17 05:59:09;;;;;;;;;;;;;;;25.47;nan;100056.63;5072388;28;1275;-45
2022/08/17 06:01:46;;;;;;;;;;;;;;;25.56;nan;100063.78;5072751;28;1129;-45
2022/08/17 06:04:29;;;;;;;;;;;;;;;25.54;nan;100063.06;5072258;28;1910;-48
2022/08/17 06:06:56;;;;;;;;;;;;;;;25.56;nan;100068.28;5072837;28;1015;-46
2022/08/17 06:09:33;;;;;;;;;;;;;;;25.63;nan;100061.34;5072703;28;1465;-48
2022/08/17 06:12:20;;;;;;;;;;;;;;;25.66;nan;100061.88;5072425;28;1519;-49
2022/08/17 06:14:46;;;;;;;;;;;;;;;25.73;nan;100052.31;5055752;28;741;-46
2022/08/17 06:17:15;;;;;;;;;;;;;;;25.75;nan;100044.16;5052597;28;1202;-45
2022/08/17 06:19:47;;;;;;;;;;;;;;;25.74;nan;100045.16;5052790;28;862;-46
2022/08/17 06:22:17;;;;;;;;;;;;;;;25.69;nan;100040.25;5052566;28;1279;-46
2022/08/17 06:24:55;;;;;;;;;;;;;;;25.66;nan;100039.72;5052719;28;1906;-45
2022/08/17 06:27:44;;;;;;;;;;;;;;;25.62;nan;100038.34;5051911;28;1252;-48
2022/08/17 06:30:16;;;;;;;;;;;;;;;25.60;nan;100037.63;5052614;28;909;-54
2022/08/17 06:32:44;;;;;;;;;;;;;;;25.53;nan;100043.56;5052897;28;1517;-49
2022/08/17 06:35:13;;;;;;;;;;;;;;;25.54;nan;100053.25;5056168;28;762;-47
2022/08/17 06:37:43;;;;;;;;;;;;;;;25.57;nan;100062.78;5055954;28;1478;-48
2022/08/17 06:40:17;;;;;;;;;;;;;;;25.62;nan;100051.69;5056053;28;810;-48
2022/08/17 06:42:49;;;;;;;;;;;;;;;25.66;nan;100048.56;5072019;28;1224;-48
2022/08/17 06:45:37;;;;;;;;;;;;;;;25.81;nan;100039.06;5076003;28;1901;-52
2022/08/17 06:48:23;;;;;;;;;;;;;;;25.81;nan;100031.06;5075817;28;1248;-51
2022/08/17 06:51:07;;;;;;;;;;;;;;;25.80;nan;100048.06;5074685;28;1444;-51
2022/08/17 06:53:52;;;;;;;;;;;;;;;25.74;nan;100031.81;5075622;28;1212;-50
2022/08/17 06:56:37;;;;;;;;;;;;;;;25.77;nan;100042.19;5074930;28;1408;-46
2022/08/17 06:59:24;;;;;;;;;;;;;;;25.69;nan;100040.25;5073444;28;1406;-47
2022/08/17 07:01:51;;;;;;;;;;;;;;;25.65;nan;100046.91;5073916;28;1290;-48
2022/08/17 07:04:20;;;;;;;;;;;;;;;25.73;nan;100033.66;5075345;28;1981;-47
2022/08/17 07:06:49;;;;;;;;;;;;;;;25.72;nan;100034.63;5075428;28;1079;-46
2022/08/17 07:09:24;;;;;;;;;;;;;;;25.88;nan;100044.66;5074926;28;1185;-46
2022/08/17 07:11:52;;;;;;;;;;;;;;;25.97;nan;100039.25;5074586;28;1615;-50
2022/08/17 07:14:22;;;;;;;;;;;;;;;25.98;nan;100056.09;5075020;28;1356;-45
2022/08/17 07:16:50;;;;;;;;;;;;;;;25.90;nan;100053.34;5076385;28;1788;-50
2022/08/17 07:19:21;;;;;;;;;;;;;;;25.92;nan;100065.56;5065978;28;1226;-53
2022/08/17 07:21:48;;;;;;;;;;;;;;;26.01;nan;100066.47;5055303;28;1038;-50
2022/08/17 07:24:40;;;;;;;;;;;;;;;25.90;nan;100074.69;5054648;28;1960;-53
2022/08/17 07:27:12;;;;;;;;;;;;;;;25.98;nan;100072.13;5054801;28;1255;-44
2022/08/17 07:29:44;;;;;;;;;;;;;;;25.93;nan;100077.88;5073209;28;857;-47
2022/08/17 07:32:13;;;;;;;;;;;;;;;25.98;nan;100077.44;5074724;28;1291;-50
2022/08/17 07:35:07;;;;;;;;;;;;;;;26.06;nan;100074.88;5074780;28;1104;-43
2022/08/17 07:37:37;;;;;;;;;;;;;;;26.04;nan;100074.19;5074788;28;1220;-43
2022/08/17 07:40:18;;;;;;;;;;;;;;;26.19;nan;100075.38;5074322;28;741;-52
2022/08/17 07:43:01;;;;;;;;;;;;;;;26.34;nan;100070.34;5073502;28;1319;-44
2022/08/17 07:48:18;;;;;;;;;;;;;;;26.58;nan;100082.09;5054614;28;1224;-47
2022/08/17 07:50:46;;;;;;;;;;;;;;;26.72;nan;100059.31;5054453;28;778;-50
2022/08/17 07:53:18;;;;;;;;;;;;;;;26.91;nan;100053.00;5054509;28;1296;-51
2022/08/17 07:55:45;;;;;;;;;;;;;;;27.10;nan;100071.50;5054189;28;703;-40
2022/08/17 07:58:20;;;;;;;;;;;;;;;27.26;nan;100071.63;5065516;28;1262;-44
2022/08/17 08:01:03;;;;;;;;;;;;;;;27.36;nan;100068.84;5074149;28;885;-44
2022/08/17 08:03:32;;;;;;;;;;;;;;;27.35;nan;100068.00;5074259;28;1212;-42
2022/08/17 08:06:01;;;;;;;;;;;;;;;27.24;nan;100060.22;5072360;28;1967;-44
2022/08/17 08:08:34;;;;;;;;;;;;;;;26.98;nan;100062.91;5072094;28;1314;-42
2022/08/17 08:11:03;;;;;;;;;;;;;;;27.03;nan;100081.13;5073521;28;784;-40
2022/08/17 08:13:31;;;;;;;;;;;;;;;27.17;nan;100055.69;5073494;28;1635;-40
2022/08/17 08:16:13;;;;;;;;;;;;;;;27.18;nan;100047.47;5072631;28;928;-41
2022/08/17 08:18:42;;;;;;;;;;;;;;;27.09;nan;100062.63;5069864;28;1492;-42
2022/08/17 08:21:51;;;;;;;;;;;;;;;27.18;nan;100052.03;5072323;28;921;-40
2022/08/17 08:24:27;;;;;;;;;;;;;;;26.90;nan;100048.66;5068297;28;1979;-42
2022/08/17 08:26:59;;;;;;;;;;;;;;;27.02;nan;100061.59;5073512;28;1049;-37
2022/08/17 08:29:28;;;;;;;;;;;;;;;26.94;nan;100066.03;5081506;28;1410;-38
2022/08/17 08:32:14;;;;;;;;;;;;;;;27.01;nan;100073.28;5093597;28;1064;-42
2022/08/17 08:34:56;;;;;;;;;;;;;;;26.80;nan;100061.25;5093440;28;723;-38
2022/08/17 08:37:41;;;;;;;;;;;;;;;26.87;nan;100059.66;5064224;28;1262;-45
2022/08/17 08:40:29;;;;;;;;;;;;;;;26.65;nan;100066.31;5054549;28;1556;-42
2022/08/17 08:43:11;;;;;;;;;;;;;;;26.76;nan;100100.78;5066416;28;1405;-50
2022/08/17 08:45:48;;;;;;;;;;;;;;;26.94;nan;100103.44;5059729;28;1979;-40
2022/08/17 08:48:30;;;;;;;;;;;;;;;26.68;nan;100090.03;5055264;28;1311;-41
2022/08/17 08:51:29;;;;;;;;;;;;;;;26.81;nan;100103.03;5063676;28;2350;-45
2022/08/17 08:53:56;;;;;;;;;;;;;;;27.12;nan;100129.16;5053904;28;1237;-41
2022/08/17 08:56:26;;;;;;;;;;;;;;;26.61;nan;100113.84;5061766;28;1279;-39
2022/08/17 08:59:12;;;;;;;;;;;;;;;26.61;nan;100081.78;5068676;28;1259;-42
2022/08/17 09:01:49;;;;;;;;;;;;;;;26.89;nan;100073.69;5057961;28;1070;-39
2022/08/17 09:04:30;;;;;;;;;;;;;;;26.88;nan;100072.00;5046656;28;1902;-44
2022/08/17 09:07:21;;;;;;;;;;;;;;;26.67;nan;100075.00;5047845;28;1276;-39
2022/08/17 09:10:03;;;;;;;;;;;;;;;26.45;nan;100064.75;5047356;28;882;-40
2022/08/17 09:12:49;;;;;;;;;;;;;;;26.28;nan;100066.47;5048281;28;1331;-39
2022/08/17 09:15:24;;;;;;;;;;;;;;;26.35;nan;100086.22;5047436;28;762;-39
2022/08/17 09:17:52;;;;;;;;;;;;;;;26.64;nan;100094.00;5047615;28;1173;-43
2022/08/17 09:20:43;;;;;;;;;;;;;;;26.52;nan;100076.53;5050130;28;2466;-43
2022/08/17 09:23:24;;;;;;;;;;;;;;;26.33;nan;100061.50;5047605;28;1240;-39
2022/08/17 09:25:57;;;;;;;;;;;;;;;26.38;nan;100079.75;5047522;28;1922;-44
2022/08/17 09:28:35;;;;;;;;;;;;;;;26.61;nan;100111.16;5059414;28;1319;-40
2022/08/17 09:31:10;;;;;;;;;;;;;;;26.54;nan;100174.19;5064518;28;1078;-40
2022/08/17 09:33:43;;;;;;;;;;;;;;;26.41;nan;100170.22;5049028;28;1311;-42
2022/08/17 09:36:10;;;;;;;;;;;;;;;26.45;nan;100145.72;5049152;28;1059;-44
2022/08/17 09:38:45;;;;;;;;;;;;;;;26.39;nan;100124.13;5048831;28;1252;-42
2022/08/17 09:41:18;;;;;;;;;;;;;;;26.41;nan;100125.69;5048710;28;1517;-42
2022/08/17 09:43:53;;;;;;;;;;;;;;;26.44;nan;100124.53;5049220;28;1301;-40
2022/08/17 09:46:29;;;;;;;;;;;;;;;26.27;nan;100112.81;5048918;28;1902;-43
2022/08/17 09:48:56;;;;;;;;;;;;;;;26.20;nan;100092.25;5048671;28;1316;-41
2022/08/17 09:51:25;;;;;;;;;;;;;;;26.26;nan;100099.66;5048210;28;1059;-41
2022/08/17 09:53:53;;;;;;;;;;;;;;;26.18;nan;100115.56;5048989;28;1244;-42
2022/08/17 09:56:39;;;;;;;;;;;;;;;26.18;nan;100128.91;5054086;28;1548;-41
2022/08/17 09:59:31;;;;;;;;;;;;;;;26.18;nan;100127.06;5070477;28;1331;-40
2022/08/17 10:02:21;;;;;;;;;;;;;;;26.16;nan;100105.03;5068707;28;1148;-36
2022/08/17 10:04:48;;;;;;;;;;;;;;;26.22;nan;100101.78;5060608;28;1997;-38
2022/08/17 10:07:32;;;;;;;;;;;;;;;26.27;nan;100115.50;5049663;28;1305;-38
2022/08/17 10:09:59;;;;;;;;;;;;;;;26.33;nan;100114.91;5053052;28;865;-38
2022/08/17 10:12:41;;;;;;;;;;;;;;;26.67;nan;100101.69;5052472;28;1571;-37
2022/08/17 10:15:15;;;;;;;;;;;;;;;26.84;nan;100130.25;5052706;28;1464;-38
2022/08/17 10:17:49;;;;;;;;;;;;;;;26.85;nan;100137.28;5052285;28;1205;-38
2022/08/17 10:20:19;;;;;;;;;;;;;;;26.70;nan;100120.09;5051249;28;952;-37
2022/08/17 10:28:35;;;;;;;;;;;;;;;26.83;nan;100106.38;5052328;28;1260;-45
2022/08/17 10:31:04;;;;;;;;;;;;;;;26.92;nan;100117.00;5051796;28;1016;-42
2022/08/17 10:34:00;;;;;;;;;;;;;;;26.87;nan;100113.09;5052484;28;2281;-38
2022/08/17 10:36:33;;;;;;;;;;;;;;;26.81;nan;100097.69;5051492;28;1027;-37
2022/08/17 10:39:00;;;;;;;;;;;;;;;26.78;nan;100065.91;5051202;28;1300;-39
2022/08/17 10:41:26;;;;;;;;;;;;;;;26.77;nan;100053.53;5051716;28;1118;-36
2022/08/17 10:44:12;;;;;;;;;;;;;;;26.78;nan;100050.69;5059143;28;1165;-37
2022/08/17 10:47:07;;;;;;;;;;;;;;;27.07;nan;100055.78;5061167;28;2174;-39
2022/08/17 10:49:48;;;;;;;;;;;;;;;27.02;nan;100055.44;5051853;28;870;-37
2022/08/17 10:52:18;;;;;;;;;;;;;;;27.09;nan;100059.13;5051895;28;1367;-38
2022/08/17 10:54:50;;;;;;;;;;;;;;;27.18;nan;100058.19;5058033;28;1032;-38
2022/08/17 10:57:26;;;;;;;;;;;;;;;27.20;nan;100055.38;5057158;28;1308;-41
2022/08/17 10:59:54;;;;;;;;;;;;;;;27.17;nan;100059.19;5056252;28;1557;-39
2022/08/17 11:02:27;;;;;;;;;;;;;;;27.27;nan;100049.22;5056686;28;1513;-40
2022/08/17 11:05:02;;;;;;;;;;;;;;;27.25;nan;100040.50;5063783;28;1921;-37
2022/08/17 11:07:49;;;;;;;;;;;;;;;27.43;nan;100030.59;5070082;28;1307;-38
2022/08/17 11:10:16;;;;;;;;;;;;;;;27.63;nan;100021.31;5060336;28;1293;-44
2022/08/17 11:12:50;;;;;;;;;;;;;;;27.65;nan;100026.53;5050039;28;1612;-40
2022/08/17 11:15:23;;;;;;;;;;;;;;;27.58;nan;100031.69;5050229;28;1078;-43
2022/08/17 11:17:50;;;;;;;;;;;;;;;27.68;nan;100040.41;5050921;28;1185;-43
2022/08/17 11:20:40;;;;;;;;;;;;;;;27.77;nan;100027.91;5050175;28;1058;-44
2022/08/17 11:23:17;;;;;;;;;;;;;;;27.79;nan;100009.00;5045547;28;1232;-44
2022/08/17 11:25:52;;;;;;;;;;;;;;;28.00;nan;100007.53;5050338;28;1910;-41
2022/08/17 11:28:33;;;;;;;;;;;;;;;27.91;nan;100003.16;5051462;28;1205;-40
2022/08/17 11:31:29;;;;;;;;;;;;;;;27.94;nan;100002.00;5049762;28;1086;-41
2022/08/17 11:34:13;;;;;;;;;;;;;;;28.08;nan;99998.72;5044678;28;1233;-44
2022/08/17 11:36:44;;;;;;;;;;;;;;;28.28;nan;100010.78;5051256;28;1151;-41
2022/08/17 11:39:49;;;;;;;;;;;;;;;28.07;nan;100013.09;5050606;28;1268;-42
2022/08/17 11:42:28;;;;;;;;;;;;;;;28.24;nan;100011.31;5008241;28;1248;-40
2022/08/17 11:45:02;;;;;;;;;;;;;;;28.12;nan;100008.09;5008116;28;2005;-41
2022/08/17 11:53:35;;;;;;;;;;;;;;;28.29;nan;100008.97;5051301;28;1252;-39
2022/08/17 11:56:02;;;;;;;;;;;;;;;28.39;nan;100002.41;5067980;28;1039;-39
2022/08/17 11:58:28;;;;;;;;;;;;;;;28.29;nan;100012.47;5070647;28;1306;-43
2022/08/17 12:00:57;;;;;;;;;;;;;;;28.34;nan;100020.00;5054446;28;1085;-40
2022/08/17 12:03:42;;;;;;;;;;;;;;;28.56;nan;100009.47;5049653;28;1220;-41
2022/08/17 12:06:08;;;;;;;;;;;;;;;28.38;nan;100022.19;5050372;28;1902;-41
2022/08/17 12:08:42;;;;;;;;;;;;;;;28.37;nan;100022.34;5050714;28;1252;-43
2022/08/17 12:11:10;;;;;;;;;;;;;;;28.48;nan;100005.97;5050332;28;1043;-39
2022/08/17 12:13:43;;;;;;;;;;;;;;;28.64;nan;100016.66;5057716;28;1897;-37
2022/08/17 12:16:17;;;;;;;;;;;;;;;28.63;nan;100010.47;5064922;28;1218;-46
2022/08/17 12:18:58;;;;;;;;;;;;;;;28.66;nan;100015.53;5070011;28;1236;-46
2022/08/17 12:21:30;;;;;;;;;;;;;;;28.74;nan;100012.84;5063535;28;1468;-46
2022/08/17 12:23:57;;;;;;;;;;;;;;;28.81;nan;100013.00;5067287;28;1264;-47
2022/08/17 12:26:29;;;;;;;;;;;;;;;28.77;nan;100013.50;5066967;28;1963;-47
2022/08/17 12:29:01;;;;;;;;;;;;;;;28.76;nan;100009.16;5069720;28;1300;-48
2022/08/17 12:31:35;;;;;;;;;;;;;;;28.76;nan;100019.88;5068705;28;837;-47
2022/08/17 12:34:03;;;;;;;;;;;;;;;28.80;nan;100022.03;5071717;28;1260;-48
2022/08/17 12:36:31;;;;;;;;;;;;;;;28.88;nan;100027.38;5068656;28;938;-46
2022/08/17 12:39:05;;;;;;;;;;;;;;;28.86;nan;100031.22;5069281;28;1335;-45
2022/08/17 12:41:45;;;;;;;;;;;;;;;28.88;nan;100023.88;5064116;28;1145;-47
2022/08/17 12:44:12;;;;;;;;;;;;;;;28.93;nan;100032.22;5068482;28;1284;-48
2022/08/17 12:47:00;;;;;;;;;;;;;;;29.07;nan;100028.84;5069491;28;1969;-45
2022/08/17 12:49:34;;;;;;;;;;;;;;;28.83;nan;100027.06;5069257;28;1271;-45
2022/08/17 12:52:01;;;;;;;;;;;;;;;28.98;nan;100030.72;5070080;28;1106;-43
2022/08/17 12:54:33;;;;;;;;;;;;;;;28.95;nan;100031.06;5065079;28;1316;-47
2022/08/17 12:57:04;;;;;;;;;;;;;;;28.91;nan;100034.25;5068804;28;964;-45
2022/08/17 12:59:31;;;;;;;;;;;;;;;28.94;nan;100028.56;5064477;28;880;-47
2022/08/17 13:01:59;;;;;;;;;;;;;;;29.21;nan;100028.16;5067416;28;980;-42
2022/08/17 13:04:26;;;;;;;;;;;;;;;29.19;nan;100027.47;5070482;28;1441;-50
2022/08/17 13:06:55;;;;;;;;;;;;;;;29.23;nan;100028.81;5061436;28;1981;-46
2022/08/17 13:09:30;;;;;;;;;;;;;;;29.32;nan;100027.81;5063657;28;1375;-48
2022/08/17 13:12:01;;;;;;;;;;;;;;;29.25;nan;100032.19;5061815;28;1703;-45
2022/08/17 13:14:28;;;;;;;;;;;;;;;29.13;nan;100033.53;5065747;28;1291;-46
2022/08/17 13:16:58;;;;;;;;;;;;;;;29.22;nan;100038.69;5068031;28;890;-52
2022/08/17 13:19:29;;;;;;;;;;;;;;;29.15;nan;100048.44;5064021;28;1291;-48
2022/08/17 13:22:08;;;;;;;;;;;;;;;29.32;nan;100041.22;5067715;28;1322;-46
2022/08/17 13:24:35;;;;;;;;;;;;;;;29.19;nan;100054.28;5064845;28;957;-49
2022/08/17 13:27:03;;;;;;;;;;;;;;;29.31;nan;100052.94;5067235;28;1910;-49
2022/08/17 13:29:38;;;;;;;;;;;;;;;29.35;nan;100056.13;5065024;28;1140;-44
2022/08/17 13:32:05;;;;;;;;;;;;;;;29.39;nan;100044.91;5067704;28;1335;-46
2022/08/17 13:34:46;;;;;;;;;;;;;;;29.45;nan;100048.72;5066126;28;1100;-46
2022/08/17 13:37:34;;;;;;;;;;;;;;;29.45;nan;100059.47;5067765;28;2027;-48
2022/08/17 13:40:01;;;;;;;;;;;;;;;29.46;nan;100055.75;5066638;28;948;-50
2022/08/17 13:42:28;;;;;;;;;;;;;;;29.45;nan;100052.25;5069030;28;1279;-46
2022/08/17 13:44:54;;;;;;;;;;;;;;;29.44;nan;100050.56;5070434;28;908;-49
2022/08/17 13:47:22;;;;;;;;;;;;;;;29.16;nan;100055.47;5070984;28;1970;-45
2022/08/17 13:49:49;;;;;;;;;;;;;;;29.06;nan;100056.69;5064458;28;860;-44
2022/08/17 13:52:34;;;;;;;;;;;;;;;29.11;nan;100063.22;5072275;28;1486;-45
2022/08/17 13:55:04;;;;;;;;;;;;;;;29.02;nan;100074.94;5063964;28;1107;-50
2022/08/17 13:57:31;;;;;;;;;;;;;;;29.14;nan;100078.13;5070358;28;1498;-50
2022/08/17 14:00:34;;;;;;;;;;;;;;;29.20;nan;100074.75;5064768;28;888;-53
2022/08/17 14:03:01;;;;;;;;;;;;;;;29.51;nan;100070.34;5058593;28;1291;-48
2022/08/17 14:05:29;;;;;;;;;;;;;;;29.58;nan;100068.63;5064864;28;1922;-49
2022/08/17 14:07:57;;;;;;;;;;;;;;;29.45;nan;100071.03;5070598;28;1319;-47